Disclaimer

Please do not use the information listed here in-flight or in-navigation, as they are not provided to us by the airports but are provided by volunteers, so they might be outdated.

Search


Regions


Airport information page

Radio informations:
SANTA CLARA TWR - 118.1 MHz

Airport informations:
Latitude: 22° 29' 31.89" N
Longitude: 079° 56' 37.00" W
Elevation: 338 feet - 103 meters
Operating hours: Remarks
Operating agency: Military-civil joint use airport
Timezone: UTC-5(-4DT) - Last Sunday in March to last Sunday in October
Fuel: 100/130 MIL Spec, low lead, aviation gasoline (BLUE)

Unknown fuel type or whether there is any fuel.

Runway information:
08/26 - 9898 x 148 feet< - >3017 x 45 meters

Recent METARs:
MUSC 162250Z 01003KT 330V050 9000 FEW020CB 22/18 Q1016
MUSC 162250Z 01003KT 330V050 9000 FEW020CB 22/18 Q1016
MUSC 162350Z 32003KT 290V070 9000 FEW020 21/17 Q1016

Airport on the map: